sensor_id;sensor_type;location;lat;lon;timestamp;pressure;altitude;pressure_sealevel;temperature;humidity
72921;BME280;61064;51.654;5.476;2024-03-02T00:00:34;99842.75;;;8.81;84.94
72921;BME280;61064;51.654;5.476;2024-03-02T00:02:59;99834.81;;;8.83;84.83
72921;BME280;61064;51.654;5.476;2024-03-02T00:05:24;99847.19;;;8.85;84.99
72921;BME280;61064;51.654;5.476;2024-03-02T00:07:54;99855.13;;;8.90;84.92
72921;BME280;61064;51.654;5.476;2024-03-02T00:10:23;99866.59;;;8.93;85.18
72921;BME280;61064;51.654;5.476;2024-03-02T00:12:54;99874.56;;;8.93;85.03
72921;BME280;61064;51.654;5.476;2024-03-02T00:18:11;99900.19;;;9.00;85.38
72921;BME280;61064;51.654;5.476;2024-03-02T00:20:38;99926.72;;;9.02;85.46
72921;BME280;61064;51.654;5.476;2024-03-02T00:23:05;99958.53;;;9.09;85.29
72921;BME280;61064;51.654;5.476;2024-03-02T00:25:42;99947.06;;;9.00;85.26
72921;BME280;61064;51.654;5.476;2024-03-02T00:28:35;99956.81;;;8.81;85.74
72921;BME280;61064;51.654;5.476;2024-03-02T00:31:07;99965.66;;;8.66;86.17
72921;BME280;61064;51.654;5.476;2024-03-02T00:33:41;99965.66;;;8.51;86.83
72921;BME280;61064;51.654;5.476;2024-03-02T00:36:10;99969.16;;;8.37;87.21
72921;BME280;61064;51.654;5.476;2024-03-02T00:38:50;99965.59;;;8.28;87.75
72921;BME280;61064;51.654;5.476;2024-03-02T00:41:30;99959.38;;;8.20;88.17
72921;BME280;61064;51.654;5.476;2024-03-02T00:44:34;99951.44;;;8.13;88.45
72921;BME280;61064;51.654;5.476;2024-03-02T00:47:03;99963.81;;;8.08;88.60
72921;BME280;61064;51.654;5.476;2024-03-02T00:49:29;99976.16;;;8.07;88.76
72921;BME280;61064;51.654;5.476;2024-03-02T00:51:54;99969.97;;;8.05;89.21
72921;BME280;61064;51.654;5.476;2024-03-02T00:54:21;99976.13;;;8.00;89.41
72921;BME280;61064;51.654;5.476;2024-03-02T00:56:48;99980.53;;;7.99;89.68
72921;BME280;61064;51.654;5.476;2024-03-02T00:59:14;99975.25;;;7.96;89.48
72921;BME280;61064;51.654;5.476;2024-03-02T01:01:40;99974.34;;;7.91;89.68
72921;BME280;61064;51.654;5.476;2024-03-02T01:04:05;99976.09;;;7.92;89.73
72921;BME280;61064;51.654;5.476;2024-03-02T01:06:35;99973.44;;;7.92;90.43
72921;BME280;61064;51.654;5.476;2024-03-02T01:09:00;99961.97;;;7.84;90.56
72921;BME280;61064;51.654;5.476;2024-03-02T01:11:27;99954.00;;;7.82;90.78
72921;BME280;61064;51.654;5.476;2024-03-02T01:13:54;99975.22;;;7.85;91.06
72921;BME280;61064;51.654;5.476;2024-03-02T01:16:19;99985.78;;;7.84;91.12
72921;BME280;61064;51.654;5.476;2024-03-02T01:18:45;99978.72;;;7.78;91.16
72921;BME280;61064;51.654;5.476;2024-03-02T01:21:12;99983.13;;;7.81;91.55
72921;BME280;61064;51.654;5.476;2024-03-02T01:23:38;99968.13;;;7.80;91.67
72921;BME280;61064;51.654;5.476;2024-03-02T01:26:09;99966.38;;;7.79;91.88
72921;BME280;61064;51.654;5.476;2024-03-02T01:28:37;99976.94;;;7.79;91.67
72921;BME280;61064;51.654;5.476;2024-03-02T01:31:03;99957.50;;;7.72;91.84
72921;BME280;61064;51.654;5.476;2024-03-02T01:33:28;99964.59;;;7.78;91.94
72921;BME280;61064;51.654;5.476;2024-03-02T01:35:54;99981.34;;;7.77;91.97
72921;BME280;61064;51.654;5.476;2024-03-02T01:38:22;99982.22;;;7.77;92.35
72921;BME280;61064;51.654;5.476;2024-03-02T01:40:47;99972.53;;;7.78;92.15
72921;BME280;61064;51.654;5.476;2024-03-02T01:43:14;99974.28;;;7.80;92.22
72921;BME280;61064;51.654;5.476;2024-03-02T01:45:39;99980.47;;;7.81;92.15
72921;BME280;61064;51.654;5.476;2024-03-02T01:48:06;99984.91;;;7.79;92.15
72921;BME280;61064;51.654;5.476;2024-03-02T01:50:32;99989.31;;;7.80;92.27
72921;BME280;61064;51.654;5.476;2024-03-02T01:52:58;99990.16;;;7.80;92.36
72921;BME280;61064;51.654;5.476;2024-03-02T01:55:24;99970.75;;;7.75;92.13
72921;BME280;61064;51.654;5.476;2024-03-02T01:57:51;99973.44;;;7.83;92.34
72921;BME280;61064;51.654;5.476;2024-03-02T02:00:21;99975.19;;;7.81;92.41
72921;BME280;61064;51.654;5.476;2024-03-02T02:02:50;99977.84;;;7.82;92.51
72921;BME280;61064;51.654;5.476;2024-03-02T02:05:16;99976.06;;;7.83;92.23
72921;BME280;61064;51.654;5.476;2024-03-02T02:07:42;99977.84;;;7.79;92.38
72921;BME280;61064;51.654;5.476;2024-03-02T02:10:09;99984.03;;;7.83;92.40
72921;BME280;61064;51.654;5.476;2024-03-02T02:12:35;99974.28;;;7.80;92.23
72921;BME280;61064;51.654;5.476;2024-03-02T02:15:01;99974.31;;;7.83;92.25
72921;BME280;61064;51.654;5.476;2024-03-02T02:17:27;99984.88;;;7.82;92.27
72921;BME280;61064;51.654;5.476;2024-03-02T02:19:52;99971.66;;;7.79;92.45
72921;BME280;61064;51.654;5.476;2024-03-02T02:22:19;99976.03;;;7.75;92.52
72921;BME280;61064;51.654;5.476;2024-03-02T02:24:45;99984.03;;;7.80;92.45
72921;BME280;61064;51.654;5.476;2024-03-02T02:27:10;99983.09;;;7.73;92.51
72921;BME280;61064;51.654;5.476;2024-03-02T02:29:36;99971.59;;;7.70;92.35
72921;BME280;61064;51.654;5.476;2024-03-02T02:32:03;99968.97;;;7.67;92.55
72921;BME280;61064;51.654;5.476;2024-03-02T02:34:28;99982.22;;;7.71;92.57
72921;BME280;61064;51.654;5.476;2024-03-02T02:36:54;99976.00;;;7.66;92.66
72921;BME280;61064;51.654;5.476;2024-03-02T02:39:21;99981.31;;;7.69;92.83
72921;BME280;61064;51.654;5.476;2024-03-02T02:41:47;99982.19;;;7.65;92.58
72921;BME280;61064;51.654;5.476;2024-03-02T02:44:13;99979.53;;;7.67;92.71
72921;BME280;61064;51.654;5.476;2024-03-02T02:46:39;99974.25;;;7.65;92.87
72921;BME280;61064;51.654;5.476;2024-03-02T02:49:05;99976.00;;;7.65;92.73
72921;BME280;61064;51.654;5.476;2024-03-02T02:51:30;99975.13;;;7.63;92.86
72921;BME280;61064;51.654;5.476;2024-03-02T02:53:58;99983.97;;;7.63;92.88
72921;BME280;61064;51.654;5.476;2024-03-02T02:56:24;99966.28;;;7.61;92.62
72921;BME280;61064;51.654;5.476;2024-03-02T02:58:49;99987.44;;;7.59;92.89
72921;BME280;61064;51.654;5.476;2024-03-02T03:01:15;100000.69;;;7.59;92.94
72921;BME280;61064;51.654;5.476;2024-03-02T03:04:02;99983.03;;;7.55;93.17
72921;BME280;61064;51.654;5.476;2024-03-02T03:06:28;99983.03;;;7.55;93.18
72921;BME280;61064;51.654;5.476;2024-03-02T03:08:53;99983.88;;;7.54;93.30
72921;BME280;61064;51.654;5.476;2024-03-02T03:11:18;99991.84;;;7.56;93.60
72921;BME280;61064;51.654;5.476;2024-03-02T03:13:44;99991.84;;;7.54;93.53
72921;BME280;61064;51.654;5.476;2024-03-02T03:16:09;99993.59;;;7.52;93.45
72921;BME280;61064;51.654;5.476;2024-03-02T03:18:35;99984.75;;;7.53;93.48
72921;BME280;61064;51.654;5.476;2024-03-02T03:21:02;99993.59;;;7.53;93.62
72921;BME280;61064;51.654;5.476;2024-03-02T03:23:29;99987.44;;;7.51;93.56
72921;BME280;61064;51.654;5.476;2024-03-02T03:25:55;99992.69;;;7.53;93.62
72921;BME280;61064;51.654;5.476;2024-03-02T03:28:20;99999.75;;;7.52;93.43
72921;BME280;61064;51.654;5.476;2024-03-02T03:30:46;100001.56;;;7.52;93.46
72921;BME280;61064;51.654;5.476;2024-03-02T03:33:11;99990.97;;;7.52;93.64
72921;BME280;61064;51.654;5.476;2024-03-02T03:35:37;99999.75;;;7.52;93.63
72921;BME280;61064;51.654;5.476;2024-03-02T03:38:03;99998.91;;;7.52;93.39
72921;BME280;61064;51.654;5.476;2024-03-02T03:40:29;99993.56;;;7.44;93.17
72921;BME280;61064;51.654;5.476;2024-03-02T03:42:54;99986.50;;;7.48;93.11
72921;BME280;61064;51.654;5.476;2024-03-02T03:45:22;99993.56;;;7.47;93.28
72921;BME280;61064;51.654;5.476;2024-03-02T03:47:51;99999.75;;;7.45;93.22
72921;BME280;61064;51.654;5.476;2024-03-02T03:50:16;100000.63;;;7.48;92.87
72921;BME280;61064;51.654;5.476;2024-03-02T03:52:42;100007.69;;;7.49;93.13
72921;BME280;61064;51.654;5.476;2024-03-02T03:55:07;100011.22;;;7.50;92.97
72921;BME280;61064;51.654;5.476;2024-03-02T03:57:35;99994.47;;;7.46;92.95
72921;BME280;61064;51.654;5.476;2024-03-02T04:00:01;100007.69;;;7.49;92.87
72921;BME280;61064;51.654;5.476;2024-03-02T04:02:26;99997.06;;;7.43;92.95
72921;BME280;61064;51.654;5.476;2024-03-02T04:04:51;100007.69;;;7.48;93.04
72921;BME280;61064;51.654;5.476;2024-03-02T04:07:17;100005.06;;;7.46;92.73
72921;BME280;61064;51.654;5.476;2024-03-02T04:09:43;100016.47;;;7.44;92.70
72921;BME280;61064;51.654;5.476;2024-03-02T04:12:09;100021.78;;;7.47;92.59
72921;BME280;61064;51.654;5.476;2024-03-02T04:14:36;100021.78;;;7.47;92.86
72921;BME280;61064;51.654;5.476;2024-03-02T04:17:02;100020.00;;;7.43;92.57
72921;BME280;61064;51.654;5.476;2024-03-02T04:19:28;100025.34;;;7.46;92.90
72921;BME280;61064;51.654;5.476;2024-03-02T04:21:53;100017.38;;;7.44;92.72
72921;BME280;61064;51.654;5.476;2024-03-02T04:24:18;100015.63;;;7.45;92.51
72921;BME280;61064;51.654;5.476;2024-03-02T04:26:44;100019.16;;;7.45;92.77
72921;BME280;61064;51.654;5.476;2024-03-02T04:29:09;100007.63;;;7.42;92.56
72921;BME280;61064;51.654;5.476;2024-03-02T04:31:37;100018.28;;;7.46;92.84
72921;BME280;61064;51.654;5.476;2024-03-02T04:34:02;100015.59;;;7.43;92.83
72921;BME280;61064;51.654;5.476;2024-03-02T04:36:27;100015.59;;;7.43;92.90
72921;BME280;61064;51.654;5.476;2024-03-02T04:38:53;100018.22;;;7.42;92.90
72921;BME280;61064;51.654;5.476;2024-03-02T04:41:18;100014.66;;;7.37;92.70
72921;BME280;61064;51.654;5.476;2024-03-02T04:43:44;100012.03;;;7.35;92.98
72921;BME280;61064;51.654;5.476;2024-03-02T04:46:09;100027.03;;;7.35;92.89
72921;BME280;61064;51.654;5.476;2024-03-02T04:48:34;100024.31;;;7.26;92.95
72921;BME280;61064;51.654;5.476;2024-03-02T04:51:00;100030.53;;;7.29;92.77
72921;BME280;61064;51.654;5.476;2024-03-02T04:53:25;100032.28;;;7.29;92.81
72921;BME280;61064;51.654;5.476;2024-03-02T04:55:51;100019.88;;;7.22;92.83
72921;BME280;61064;51.654;5.476;2024-03-02T04:58:19;100026.03;;;7.21;93.15
72921;BME280;61064;51.654;5.476;2024-03-02T05:00:44;100028.72;;;7.24;93.09
72921;BME280;61064;51.654;5.476;2024-03-02T05:03:11;100037.53;;;7.24;92.94
72921;BME280;61064;51.654;5.476;2024-03-02T05:05:36;100042.84;;;7.24;93.20
72921;BME280;61064;51.654;5.476;2024-03-02T05:08:03;100039.28;;;7.25;92.94
72921;BME280;61064;51.654;5.476;2024-03-02T05:10:29;100037.53;;;7.24;92.96
72921;BME280;61064;51.654;5.476;2024-03-02T05:12:54;100037.53;;;7.24;93.01
72921;BME280;61064;51.654;5.476;2024-03-02T05:15:24;100044.59;;;7.24;92.80
72921;BME280;61064;51.654;5.476;2024-03-02T05:17:50;100034.91;;;7.24;92.99
72921;BME280;61064;51.654;5.476;2024-03-02T05:20:15;100046.34;;;7.26;92.86
72921;BME280;61064;51.654;5.476;2024-03-02T05:22:43;100035.78;;;7.26;92.86
72921;BME280;61064;51.654;5.476;2024-03-02T05:25:09;100043.69;;;7.25;92.97
72921;BME280;61064;51.654;5.476;2024-03-02T05:27:37;100045.47;;;7.24;92.70
72921;BME280;61064;51.654;5.476;2024-03-02T05:30:02;100041.03;;;7.20;92.94
72921;BME280;61064;51.654;5.476;2024-03-02T05:32:28;100044.56;;;7.21;92.87
72921;BME280;61064;51.654;5.476;2024-03-02T05:34:54;100045.41;;;7.17;92.65
72921;BME280;61064;51.654;5.476;2024-03-02T05:37:20;100056.91;;;7.19;92.67
72921;BME280;61064;51.654;5.476;2024-03-02T05:39:45;100061.25;;;7.12;92.57
72921;BME280;61064;51.654;5.476;2024-03-02T05:42:11;100064.78;;;7.14;92.72
72921;BME280;61064;51.654;5.476;2024-03-02T05:44:36;100071.81;;;7.14;93.11
72921;BME280;61064;51.654;5.476;2024-03-02T05:47:02;100070.97;;;7.13;93.08
72921;BME280;61064;51.654;5.476;2024-03-02T05:49:32;100078.00;;;7.11;93.13
72921;BME280;61064;51.654;5.476;2024-03-02T05:51:58;100072.66;;;7.06;93.05
72921;BME280;61064;51.654;5.476;2024-03-02T05:54:23;100070.94;;;7.12;93.17
72921;BME280;61064;51.654;5.476;2024-03-02T05:56:48;100066.53;;;7.10;92.82
72921;BME280;61064;51.654;5.476;2024-03-02T05:59:14;100081.53;;;7.15;92.84
72921;BME280;61064;51.654;5.476;2024-03-02T06:01:41;100084.19;;;7.16;92.92
72921;BME280;61064;51.654;5.476;2024-03-02T06:04:08;100083.28;;;7.14;93.22
72921;BME280;61064;51.654;5.476;2024-03-02T06:06:33;100075.38;;;7.16;93.12
72921;BME280;61064;51.654;5.476;2024-03-02T06:09:00;100078.03;;;7.17;93.06
72921;BME280;61064;51.654;5.476;2024-03-02T06:11:25;100086.00;;;7.19;93.22
72921;BME280;61064;51.654;5.476;2024-03-02T06:13:51;100088.66;;;7.22;93.30
72921;BME280;61064;51.654;5.476;2024-03-02T06:16:16;100084.19;;;7.15;92.90
72921;BME280;61064;51.654;5.476;2024-03-02T06:18:41;100089.50;;;7.19;92.97
72921;BME280;61064;51.654;5.476;2024-03-02T06:21:07;100091.28;;;7.20;92.87
72921;BME280;61064;51.654;5.476;2024-03-02T06:23:33;100093.06;;;7.21;92.92
72921;BME280;61064;51.654;5.476;2024-03-02T06:26:00;100093.97;;;7.23;92.72
72921;BME280;61064;51.654;5.476;2024-03-02T06:28:27;100092.16;;;7.19;92.79
72921;BME280;61064;51.654;5.476;2024-03-02T06:30:52;100089.50;;;7.19;93.13
72921;BME280;61064;51.654;5.476;2024-03-02T06:33:18;100088.63;;;7.20;93.00
72921;BME280;61064;51.654;5.476;2024-03-02T06:35:44;100101.88;;;7.25;92.88
72921;BME280;61064;51.654;5.476;2024-03-02T06:38:09;100089.53;;;7.21;92.91
72921;BME280;61064;51.654;5.476;2024-03-02T06:40:34;100094.84;;;7.24;93.09
72921;BME280;61064;51.654;5.476;2024-03-02T06:43:02;100089.50;;;7.18;93.13
72921;BME280;61064;51.654;5.476;2024-03-02T06:45:27;100100.09;;;7.18;93.02
72921;BME280;61064;51.654;5.476;2024-03-02T06:47:54;100100.06;;;7.16;93.09
72921;BME280;61064;51.654;5.476;2024-03-02T06:50:19;100110.72;;;7.25;93.29
72921;BME280;61064;51.654;5.476;2024-03-02T06:52:44;100109.00;;;7.29;92.87
72921;BME280;61064;51.654;5.476;2024-03-02T06:55:10;100108.97;;;7.30;92.92
72921;BME280;61064;51.654;5.476;2024-03-02T06:57:35;100118.72;;;7.33;92.89
72921;BME280;61064;51.654;5.476;2024-03-02T07:00:00;100108.13;;;7.30;92.86
72921;BME280;61064;51.654;5.476;2024-03-02T07:02:26;100132.00;;;7.39;92.74
72921;BME280;61064;51.654;5.476;2024-03-02T07:04:55;100123.19;;;7.38;92.97
72921;BME280;61064;51.654;5.476;2024-03-02T07:07:20;100138.19;;;7.39;92.85
72921;BME280;61064;51.654;5.476;2024-03-02T07:09:46;100124.97;;;7.41;92.76
72921;BME280;61064;51.654;5.476;2024-03-02T07:12:13;100135.59;;;7.45;93.01
72921;BME280;61064;51.654;5.476;2024-03-02T07:14:38;100136.47;;;7.49;92.87
72921;BME280;61064;51.654;5.476;2024-03-02T07:17:22;100125.00;;;7.45;92.63
72921;BME280;61064;51.654;5.476;2024-03-02T07:19:47;100124.16;;;7.51;92.75
72921;BME280;61064;51.654;5.476;2024-03-02T07:22:13;100146.25;;;7.59;92.94
72921;BME280;61064;51.654;5.476;2024-03-02T07:24:42;100141.00;;;7.62;92.60
72921;BME280;61064;51.654;5.476;2024-03-02T07:27:11;100139.25;;;7.63;92.73
72921;BME280;61064;51.654;5.476;2024-03-02T07:29:37;100145.44;;;7.69;92.49
72921;BME280;61064;51.654;5.476;2024-03-02T07:32:03;100153.41;;;7.72;92.35
72921;BME280;61064;51.654;5.476;2024-03-02T07:34:29;100144.59;;;7.72;92.13
72921;BME280;61064;51.654;5.476;2024-03-02T07:36:55;100148.16;;;7.77;92.47
72921;BME280;61064;51.654;5.476;2024-03-02T07:39:21;100147.25;;;7.76;92.19
72921;BME280;61064;51.654;5.476;2024-03-02T07:41:46;100142.00;;;7.79;92.30
72921;BME280;61064;51.654;5.476;2024-03-02T07:44:12;100148.19;;;7.80;92.09
72921;BME280;61064;51.654;5.476;2024-03-02T07:46:50;100146.44;;;7.83;91.94
72921;BME280;61064;51.654;5.476;2024-03-02T07:49:16;100145.56;;;7.84;92.10
72921;BME280;61064;51.654;5.476;2024-03-02T07:51:42;100151.75;;;7.85;91.72
72921;BME280;61064;51.654;5.476;2024-03-02T07:54:07;100142.91;;;7.86;91.67
72921;BME280;61064;51.654;5.476;2024-03-02T07:56:33;100134.94;;;7.83;91.53
72921;BME280;61064;51.654;5.476;2024-03-02T07:59:03;100149.09;;;7.85;91.65
72921;BME280;61064;51.654;5.476;2024-03-02T08:01:30;100149.06;;;7.83;91.65
72921;BME280;61064;51.654;5.476;2024-03-02T08:04:02;100141.97;;;7.81;91.60
72921;BME280;61064;51.654;5.476;2024-03-02T08:06:30;100156.13;;;7.83;91.56
72921;BME280;61064;51.654;5.476;2024-03-02T08:08:59;100144.63;;;7.78;91.37
72921;BME280;61064;51.654;5.476;2024-03-02T08:11:25;100148.16;;;7.78;91.19
72921;BME280;61064;51.654;5.476;2024-03-02T08:13:52;100144.66;;;7.84;91.01
72921;BME280;61064;51.654;5.476;2024-03-02T08:16:20;100143.78;;;7.83;90.93
72921;BME280;61064;51.654;5.476;2024-03-02T08:18:49;100155.25;;;7.84;91.05
72921;BME280;61064;51.654;5.476;2024-03-02T08:21:16;100146.44;;;7.83;91.09
72921;BME280;61064;51.654;5.476;2024-03-02T08:23:42;100155.31;;;7.93;90.69
72921;BME280;61064;51.654;5.476;2024-03-02T08:26:11;100141.22;;;7.96;90.51
72921;BME280;61064;51.654;5.476;2024-03-02T08:28:36;100154.47;;;8.03;90.67
72921;BME280;61064;51.654;5.476;2024-03-02T08:31:05;100149.22;;;8.09;90.39
72921;BME280;61064;51.654;5.476;2024-03-02T08:33:31;100156.31;;;8.19;90.39
72921;BME280;61064;51.654;5.476;2024-03-02T08:35:56;100142.22;;;8.25;89.90
72921;BME280;61064;51.654;5.476;2024-03-02T08:38:23;100153.81;;;8.34;90.03
72921;BME280;61064;51.654;5.476;2024-03-02T08:40:49;100159.13;;;8.44;89.64
72921;BME280;61064;51.654;5.476;2024-03-02T08:43:15;100146.75;;;8.44;89.35
72921;BME280;61064;51.654;5.476;2024-03-02T08:45:40;100160.03;;;8.53;89.34
72921;BME280;61064;51.654;5.476;2024-03-02T08:48:07;100162.72;;;8.58;89.36
72921;BME280;61064;51.654;5.476;2024-03-02T08:50:38;100163.63;;;8.63;89.36
72921;BME280;61064;51.654;5.476;2024-03-02T08:53:03;100155.66;;;8.66;89.07
72921;BME280;61064;51.654;5.476;2024-03-02T08:55:29;100154.78;;;8.70;88.98
72921;BME280;61064;51.654;5.476;2024-03-02T08:57:55;100156.59;;;8.74;88.71
72921;BME280;61064;51.654;5.476;2024-03-02T09:00:23;100160.13;;;8.79;88.61
72921;BME280;61064;51.654;5.476;2024-03-02T09:02:50;100158.41;;;8.86;88.68
72921;BME280;61064;51.654;5.476;2024-03-02T09:05:17;100162.84;;;8.96;88.32
72921;BME280;61064;51.654;5.476;2024-03-02T09:07:43;100162.84;;;9.02;88.29
72921;BME280;61064;51.654;5.476;2024-03-02T09:10:09;100164.59;;;9.06;88.25
72921;BME280;61064;51.654;5.476;2024-03-02T09:12:35;100157.56;;;9.12;88.23
72921;BME280;61064;51.654;5.476;2024-03-02T09:15:01;100151.34;;;9.19;87.99
72921;BME280;61064;51.654;5.476;2024-03-02T09:17:28;100169.94;;;9.27;87.82
72921;BME280;61064;51.654;5.476;2024-03-02T09:19:53;100151.38;;;9.29;87.50
72921;BME280;61064;51.654;5.476;2024-03-02T09:22:20;100154.91;;;9.41;87.30
72921;BME280;61064;51.654;5.476;2024-03-02T09:24:46;100137.22;;;9.45;87.10
72921;BME280;61064;51.654;5.476;2024-03-02T09:27:12;100140.75;;;9.50;87.04
72921;BME280;61064;51.654;5.476;2024-03-02T09:29:38;100139.84;;;9.63;87.05
72921;BME280;61064;51.654;5.476;2024-03-02T09:32:05;100138.97;;;9.67;86.70
72921;BME280;61064;51.654;5.476;2024-03-02T09:34:33;100143.38;;;9.80;86.61
72921;BME280;61064;51.654;5.476;2024-03-02T09:37:00;100141.56;;;9.94;86.15
72921;BME280;61064;51.654;5.476;2024-03-02T09:39:28;100147.72;;;10.06;85.77
72921;BME280;61064;51.654;5.476;2024-03-02T09:41:53;100153.94;;;10.14;85.19
72921;BME280;61064;51.654;5.476;2024-03-02T09:44:22;100151.28;;;10.18;84.99
72921;BME280;61064;51.654;5.476;2024-03-02T09:46:52;100148.59;;;10.27;84.57
72921;BME280;61064;51.654;5.476;2024-03-02T09:49:19;100136.16;;;10.31;84.56
72921;BME280;61064;51.654;5.476;2024-03-02T09:51:47;100151.19;;;10.47;84.33
72921;BME280;61064;51.654;5.476;2024-03-02T09:54:15;100130.75;;;10.52;84.07
72921;BME280;61064;51.654;5.476;2024-03-02T09:56:42;100143.97;;;10.69;83.83
72921;BME280;61064;51.654;5.476;2024-03-02T09:59:08;100142.19;;;10.74;83.70
72921;BME280;61064;51.654;5.476;2024-03-02T10:01:33;100143.03;;;10.77;83.35
72921;BME280;61064;51.654;5.476;2024-03-02T10:03:59;100139.44;;;10.86;83.15
72921;BME280;61064;51.654;5.476;2024-03-02T10:06:26;100150.91;;;10.97;82.81
72921;BME280;61064;51.654;5.476;2024-03-02T10:08:53;100142.84;;;11.06;82.80
72921;BME280;61064;51.654;5.476;2024-03-02T10:11:31;100144.56;;;11.15;82.17
72921;BME280;61064;51.654;5.476;2024-03-02T10:14:11;100138.25;;;11.30;81.90
72921;BME280;61064;51.654;5.476;2024-03-02T10:16:42;100147.91;;;11.41;81.61
72921;BME280;61064;51.654;5.476;2024-03-02T10:19:21;100131.84;;;11.50;81.31
72921;BME280;61064;51.654;5.476;2024-03-02T10:21:51;100129.09;;;11.62;81.57
72921;BME280;61064;51.654;5.476;2024-03-02T10:24:21;100119.25;;;11.74;80.59
72921;BME280;61064;51.654;5.476;2024-03-02T10:26:48;100121.75;;;11.89;80.64
72921;BME280;61064;51.654;5.476;2024-03-02T10:29:13;100108.28;;;12.01;80.56
72921;BME280;61064;51.654;5.476;2024-03-02T10:31:43;100113.50;;;12.12;79.61
72921;BME280;61064;51.654;5.476;2024-03-02T10:34:10;100113.41;;;12.19;79.43
72921;BME280;61064;51.654;5.476;2024-03-02T10:36:37;100109.78;;;12.25;79.18
72921;BME280;61064;51.654;5.476;2024-03-02T10:39:04;100107.88;;;12.34;78.82
72921;BME280;61064;51.654;5.476;2024-03-02T10:41:33;100099.81;;;12.37;77.82
72921;BME280;61064;51.654;5.476;2024-03-02T10:44:02;100108.69;;;12.41;77.79
72921;BME280;61064;51.654;5.476;2024-03-02T10:46:30;100102.41;;;12.45;77.60
72921;BME280;61064;51.654;5.476;2024-03-02T10:48:56;100102.28;;;12.54;77.17
72921;BME280;61064;51.654;5.476;2024-03-02T10:51:27;100114.69;;;12.58;76.32
72921;BME280;61064;51.654;5.476;2024-03-02T10:53:54;100109.31;;;12.60;76.12
72921;BME280;61064;51.654;5.476;2024-03-02T10:56:39;100097.72;;;12.64;75.98
72921;BME280;61064;51.654;5.476;2024-03-02T11:01:42;100098.47;;;12.73;75.17
72921;BME280;61064;51.654;5.476;2024-03-02T11:04:09;100101.03;;;12.79;75.10
72921;BME280;61064;51.654;5.476;2024-03-02T11:06:36;100100.94;;;12.87;75.11
72921;BME280;61064;51.654;5.476;2024-03-02T11:09:07;100105.22;;;12.97;73.91
72921;BME280;61064;51.654;5.476;2024-03-02T11:11:37;100099.84;;;13.00;74.20
72921;BME280;61064;51.654;5.476;2024-03-02T11:14:07;100085.59;;;13.01;73.91
72921;BME280;61064;51.654;5.476;2024-03-02T11:16:37;100106.78;;;13.10;73.37
72921;BME280;61064;51.654;5.476;2024-03-02T11:19:11;100079.25;;;13.07;73.00
72921;BME280;61064;51.654;5.476;2024-03-02T11:21:38;100093.34;;;13.18;73.30
72921;BME280;61064;51.654;5.476;2024-03-02T11:24:36;100089.59;;;13.29;73.19
72921;BME280;61064;51.654;5.476;2024-03-02T11:27:03;100091.22;;;13.38;72.54
72921;BME280;61064;51.654;5.476;2024-03-02T11:32:15;100084.78;;;13.50;71.36
72921;BME280;61064;51.654;5.476;2024-03-02T11:34:42;100090.09;;;13.53;71.41
72921;BME280;61064;51.654;5.476;2024-03-02T11:37:12;100090.00;;;13.57;71.28
72921;BME280;61064;51.654;5.476;2024-03-02T11:39:39;100077.47;;;13.61;71.04
72921;BME280;61064;51.654;5.476;2024-03-02T11:42:08;100088.94;;;13.67;70.94
72921;BME280;61064;51.654;5.476;2024-03-02T11:44:39;100085.28;;;13.71;70.61
72921;BME280;61064;51.654;5.476;2024-03-02T11:47:08;100077.34;;;13.68;69.72
72921;BME280;61064;51.654;5.476;2024-03-02T11:49:46;100067.53;;;13.67;69.16
72921;BME280;61064;51.654;5.476;2024-03-02T11:52:15;100070.97;;;13.76;70.08
72921;BME280;61064;51.654;5.476;2024-03-02T11:54:44;100073.56;;;13.80;70.20
72921;BME280;61064;51.654;5.476;2024-03-02T11:57:19;100069.88;;;13.86;70.15
72921;BME280;61064;51.654;5.476;2024-03-02T11:59:47;100067.00;;;13.95;70.27
72921;BME280;61064;51.654;5.476;2024-03-02T12:02:17;100064.22;;;14.01;69.78
72921;BME280;61064;51.654;5.476;2024-03-02T12:04:45;100058.84;;;14.02;70.07
72921;BME280;61064;51.654;5.476;2024-03-02T12:07:12;100054.19;;;14.12;70.20
72921;BME280;61064;51.654;5.476;2024-03-02T12:09:38;100049.56;;;14.20;69.84
72921;BME280;61064;51.654;5.476;2024-03-02T12:12:10;100048.56;;;14.26;69.39
72921;BME280;61064;51.654;5.476;2024-03-02T12:14:36;100040.47;;;14.27;69.06
72921;BME280;61064;51.654;5.476;2024-03-02T12:17:02;100040.53;;;14.26;68.81
72921;BME280;61064;51.654;5.476;2024-03-02T12:19:29;100029.25;;;14.10;69.15
72921;BME280;61064;51.654;5.476;2024-03-02T12:21:59;100030.91;;;14.17;68.96
72921;BME280;61064;51.654;5.476;2024-03-02T12:24:27;100033.56;;;14.17;68.94
72921;BME280;61064;51.654;5.476;2024-03-02T12:26:54;100030.97;;;14.14;68.75
72921;BME280;61064;51.654;5.476;2024-03-02T12:29:20;100025.50;;;14.20;68.61
72921;BME280;61064;51.654;5.476;2024-03-02T12:31:50;100002.34;;;14.18;68.60
72921;BME280;61064;51.654;5.476;2024-03-02T12:34:17;100013.97;;;14.16;68.29
72921;BME280;61064;51.654;5.476;2024-03-02T12:36:42;100006.91;;;14.14;68.28
72921;BME280;61064;51.654;5.476;2024-03-02T12:39:08;99991.88;;;14.07;68.12
72921;BME280;61064;51.654;5.476;2024-03-02T12:41:37;99986.63;;;14.04;68.09
72921;BME280;61064;51.654;5.476;2024-03-02T12:44:06;99990.13;;;14.06;68.00
72921;BME280;61064;51.654;5.476;2024-03-02T12:46:35;99991.00;;;14.06;68.08
72921;BME280;61064;51.654;5.476;2024-03-02T12:49:22;100009.69;;;14.09;68.40
72921;BME280;61064;51.654;5.476;2024-03-02T12:51:48;100004.16;;;14.15;68.48
72921;BME280;61064;51.654;5.476;2024-03-02T12:54:21;99995.25;;;14.16;68.53
72921;BME280;61064;51.654;5.476;2024-03-02T12:56:47;99989.84;;;14.20;68.57
72921;BME280;61064;51.654;5.476;2024-03-02T12:59:23;99990.63;;;14.25;68.36
72921;BME280;61064;51.654;5.476;2024-03-02T13:01:53;99996.66;;;14.33;68.25
72921;BME280;61064;51.654;5.476;2024-03-02T13:04:26;100004.66;;;14.34;67.77
72921;BME280;61064;51.654;5.476;2024-03-02T13:06:54;99993.09;;;14.32;68.00
72921;BME280;61064;51.654;5.476;2024-03-02T13:09:21;99994.88;;;14.33;68.00